createdAt,value
2022-08-05T00:00:50.097Z,25.53
2022-08-05T00:01:48.808Z,25.62
2022-08-05T00:02:50.430Z,25.53
2022-08-05T00:03:44.907Z,25.47
2022-08-05T00:04:43.814Z,25.44
2022-08-05T00:06:05.647Z,25.40
2022-08-05T00:06:44.774Z,25.50
2022-08-05T00:08:01.084Z,25.41
2022-08-05T00:08:44.767Z,25.43
2022-08-05T00:09:44.001Z,25.44
2022-08-05T00:10:43.814Z,25.40
2022-08-05T00:11:49.622Z,25.50
2022-08-05T00:12:56.811Z,25.44
2022-08-05T00:13:44.715Z,25.44
2022-08-05T00:14:44.689Z,25.45
2022-08-05T00:15:55.978Z,25.38
2022-08-05T00:16:53.714Z,25.44
2022-08-05T00:17:44.738Z,25.29
2022-08-05T00:18:44.300Z,25.30
2022-08-05T00:19:44.142Z,25.33
2022-08-05T00:20:43.621Z,25.32
2022-08-05T00:21:44.623Z,25.26
2022-08-05T00:22:47.121Z,25.26
2022-08-05T00:23:53.400Z,25.29
2022-08-05T00:24:44.587Z,25.25
2022-08-05T00:25:46.107Z,25.30
2022-08-05T00:26:50.642Z,25.22
2022-08-05T00:27:44.539Z,25.19
2022-08-05T00:28:43.531Z,25.15
2022-08-05T00:29:43.545Z,25.18
2022-08-05T00:30:44.029Z,25.13
2022-08-05T00:32:10.470Z,25.10
2022-08-05T00:32:44.512Z,25.06
2022-08-05T00:34:56.128Z,25.10
2022-08-05T00:35:03.524Z,25.10
2022-08-05T00:35:47.989Z,25.04
2022-08-05T00:37:11.239Z,25.03
2022-08-05T00:37:53.349Z,25.04
2022-08-05T00:38:44.449Z,25.07
2022-08-05T00:39:44.392Z,25.01
2022-08-05T00:40:51.929Z,25.01
2022-08-05T00:41:46.864Z,25.01
2022-08-05T00:42:44.370Z,24.96
2022-08-05T00:43:49.530Z,24.98
2022-08-05T00:44:44.370Z,24.92
2022-08-05T00:45:43.845Z,24.91
2022-08-05T00:46:43.635Z,24.95
2022-08-05T00:47:56.906Z,24.96
2022-08-05T00:48:51.514Z,24.81
2022-08-05T00:49:44.725Z,24.83
2022-08-05T00:50:46.049Z,24.89
2022-08-05T00:51:51.238Z,24.76
2022-08-05T00:52:45.479Z,24.77
2022-08-05T00:54:01.375Z,24.73
2022-08-05T00:54:44.255Z,24.77
2022-08-05T00:55:43.853Z,24.77
2022-08-05T00:56:51.330Z,24.78
2022-08-05T00:57:55.684Z,24.78
2022-08-05T00:58:45.011Z,24.73
2022-08-05T00:59:44.673Z,24.73
2022-08-05T01:00:43.208Z,24.73
2022-08-05T01:01:48.777Z,24.69
2022-08-05T01:02:44.148Z,24.70
2022-08-05T01:03:43.207Z,24.67
2022-08-05T01:04:44.139Z,24.70
2022-08-05T01:05:44.114Z,24.66
2022-08-05T01:06:43.712Z,24.63
2022-08-05T01:08:40.619Z,24.66
2022-08-05T01:08:44.631Z,24.63
2022-08-05T01:09:43.081Z,24.62
2022-08-05T01:10:52.250Z,24.63
2022-08-05T01:11:44.046Z,24.66
2022-08-05T01:13:05.080Z,24.58
2022-08-05T01:13:59.119Z,24.67
2022-08-05T01:14:44.030Z,24.65
2022-08-05T01:15:47.879Z,24.55
2022-08-05T01:16:44.164Z,24.74
2022-08-05T01:17:43.981Z,24.70
2022-08-05T01:18:42.962Z,24.65
2022-08-05T01:19:57.219Z,24.69
2022-08-05T01:20:43.950Z,24.73
2022-08-05T01:21:42.936Z,24.66
2022-08-05T01:22:47.095Z,24.73
2022-08-05T01:23:42.917Z,24.81
2022-08-05T01:24:43.942Z,24.82
2022-08-05T01:25:42.892Z,24.89
2022-08-05T01:26:43.884Z,24.78
2022-08-05T01:27:50.693Z,24.88
2022-08-05T01:28:43.853Z,24.74
2022-08-05T01:29:43.090Z,24.82
2022-08-05T01:30:53.940Z,24.77
2022-08-05T01:31:44.850Z,24.81
2022-08-05T01:32:42.816Z,24.82
2022-08-05T01:33:42.813Z,24.81
2022-08-05T01:34:43.786Z,24.81
2022-08-05T01:35:51.722Z,24.83
2022-08-05T01:36:46.974Z,24.74
2022-08-05T01:37:44.395Z,24.76
2022-08-05T01:38:42.766Z,24.67
2022-08-05T01:39:47.575Z,24.70
2022-08-05T01:40:43.784Z,24.69
2022-08-05T01:41:44.486Z,24.74
2022-08-05T01:42:42.715Z,24.65
2022-08-05T01:43:42.684Z,24.65
2022-08-05T01:44:42.675Z,24.63
2022-08-05T01:45:43.294Z,24.62
2022-08-05T01:46:46.175Z,24.62
2022-08-05T01:47:43.430Z,24.57
2022-08-05T01:48:42.638Z,24.55
2022-08-05T01:50:00.494Z,24.57
2022-08-05T01:50:50.999Z,24.60
2022-08-05T01:51:43.589Z,24.54
2022-08-05T01:52:43.588Z,24.58
2022-08-05T01:53:57.303Z,24.43
2022-08-05T01:54:46.005Z,24.52
2022-08-05T01:55:42.550Z,24.47
2022-08-05T01:58:10.897Z,24.37
2022-08-05T01:58:12.972Z,24.37
2022-08-05T01:58:45.062Z,24.37
2022-08-05T01:59:42.512Z,24.25
2022-08-05T02:00:42.493Z,24.32
2022-08-05T02:01:42.568Z,24.30
2022-08-05T02:02:46.419Z,24.29
2022-08-05T02:03:43.459Z,24.33
2022-08-05T02:04:42.463Z,24.23
2022-08-05T02:05:42.466Z,24.21
2022-08-05T02:06:42.484Z,24.20
2022-08-05T02:07:42.427Z,24.10
2022-08-05T02:08:55.004Z,24.15
2022-08-05T02:09:43.390Z,24.11
2022-08-05T02:10:42.382Z,24.07
2022-08-05T02:11:42.504Z,24.03
2022-08-05T02:12:43.376Z,24.10
2022-08-05T02:13:53.529Z,23.99
2022-08-05T02:14:43.428Z,23.98
2022-08-05T02:15:42.325Z,23.95
2022-08-05T02:16:42.350Z,23.90
2022-08-05T02:18:31.137Z,23.90
2022-08-05T02:18:43.327Z,24.11
2022-08-05T02:19:47.623Z,24.08
2022-08-05T02:20:43.268Z,23.90
2022-08-05T02:21:43.340Z,23.90
2022-08-05T02:22:42.350Z,23.89
2022-08-05T02:23:42.238Z,23.93
2022-08-05T02:24:42.235Z,23.89
2022-08-05T02:25:50.059Z,23.84
2022-08-05T02:26:53.891Z,23.83
2022-08-05T02:27:59.035Z,23.80
2022-08-05T02:28:45.747Z,23.77
2022-08-05T02:29:58.810Z,23.74
2022-08-05T02:30:54.395Z,23.78
2022-08-05T02:31:43.157Z,23.70
2022-08-05T02:32:42.139Z,23.63
2022-08-05T02:33:42.134Z,23.68
2022-08-05T02:34:42.115Z,23.61
2022-08-05T02:35:49.972Z,23.63
2022-08-05T02:36:43.158Z,23.55
2022-08-05T02:37:42.073Z,23.56
2022-08-05T02:38:42.066Z,23.62
2022-08-05T02:39:42.095Z,23.56
2022-08-05T02:40:43.097Z,23.53
2022-08-05T02:41:57.583Z,23.55
2022-08-05T02:42:43.068Z,23.48
2022-08-05T02:44:02.429Z,23.43
2022-08-05T02:44:42.997Z,23.44
2022-08-05T02:45:52.411Z,23.47
2022-08-05T02:46:53.286Z,23.40
2022-08-05T02:48:06.839Z,23.33
2022-08-05T02:48:43.475Z,23.31
2022-08-05T02:49:41.939Z,23.40
2022-08-05T02:50:43.630Z,23.43
2022-08-05T02:52:01.131Z,23.40
2022-08-05T02:52:42.909Z,23.34
2022-08-05T02:53:41.901Z,23.34
2022-08-05T02:54:42.720Z,23.34
2022-08-05T02:55:54.571Z,23.37
2022-08-05T02:56:43.438Z,23.33
2022-08-05T02:58:12.113Z,23.25
2022-08-05T02:58:43.691Z,23.21
2022-08-05T02:59:47.766Z,23.24
2022-08-05T03:00:45.987Z,23.20
2022-08-05T03:01:41.912Z,23.27
2022-08-05T03:02:42.903Z,23.25
2022-08-05T03:04:02.709Z,23.25
2022-08-05T03:04:42.832Z,23.27
2022-08-05T03:06:54.658Z,23.25
2022-08-05T03:06:55.890Z,23.25
2022-08-05T03:08:07.066Z,23.18
2022-08-05T03:08:43.005Z,23.10
2022-08-05T03:09:49.882Z,23.13
2022-08-05T03:10:42.698Z,23.20
2022-08-05T03:11:56.620Z,23.14
2022-08-05T03:12:42.680Z,23.07
2022-08-05T03:13:51.879Z,23.15
2022-08-05T03:14:46.071Z,23.07
2022-08-05T03:15:42.652Z,23.13
2022-08-05T03:16:41.704Z,23.24
2022-08-05T03:17:44.756Z,23.15
2022-08-05T03:18:42.091Z,23.31
2022-08-05T03:19:41.951Z,23.28
2022-08-05T03:20:48.777Z,23.24
2022-08-05T03:21:49.522Z,23.31
2022-08-05T03:22:44.187Z,23.20
2022-08-05T03:23:42.561Z,23.31
2022-08-05T03:24:41.543Z,23.27
2022-08-05T03:26:04.598Z,23.21
2022-08-05T03:26:42.564Z,23.21
2022-08-05T03:28:00.062Z,23.27
2022-08-05T03:28:42.500Z,23.24
2022-08-05T03:29:45.424Z,23.25
2022-08-05T03:30:42.608Z,23.27
2022-08-05T03:31:57.242Z,23.24
2022-08-05T03:32:42.463Z,23.20
2022-08-05T03:33:50.963Z,23.25
2022-08-05T03:34:42.501Z,23.25
2022-08-05T03:35:42.426Z,23.22
2022-08-05T03:36:41.432Z,23.22
2022-08-05T03:37:46.153Z,23.25
2022-08-05T03:38:42.401Z,23.27
2022-08-05T03:39:57.648Z,23.27
2022-08-05T03:40:45.168Z,23.27
2022-08-05T03:41:45.445Z,23.25
2022-08-05T03:42:51.530Z,23.25
2022-08-05T03:44:08.498Z,23.21
2022-08-05T03:44:42.327Z,23.28
2022-08-05T03:45:57.290Z,23.33
2022-08-05T03:46:42.306Z,23.22
2022-08-05T03:47:41.883Z,23.33
2022-08-05T03:48:41.278Z,23.33
2022-08-05T03:49:51.475Z,23.33
2022-08-05T03:50:42.262Z,23.37
2022-08-05T03:52:49.414Z,23.36
2022-08-05T03:55:50.095Z,23.22
2022-08-05T03:55:52.517Z,23.40
2022-08-05T03:55:53.559Z,23.31
2022-08-05T03:56:04.181Z,23.34
2022-08-05T03:56:42.243Z,23.34
2022-08-05T03:57:42.380Z,23.36
2022-08-05T03:58:41.313Z,23.31
2022-08-05T03:59:46.814Z,23.36
2022-08-05T04:00:42.222Z,23.36
2022-08-05T04:01:41.196Z,23.34
2022-08-05T04:02:51.861Z,23.38
2022-08-05T04:03:42.092Z,23.34
2022-08-05T04:04:42.095Z,23.41
2022-08-05T04:05:41.087Z,23.31
2022-08-05T04:06:47.522Z,23.38
2022-08-05T04:07:57.491Z,23.40
2022-08-05T04:08:42.066Z,23.22
2022-08-05T04:09:53.275Z,23.34
2022-08-05T04:10:42.017Z,23.31
2022-08-05T04:11:50.523Z,23.33
2022-08-05T04:13:11.779Z,23.37
2022-08-05T04:14:11.752Z,23.38
2022-08-05T04:15:15.585Z,23.37
2022-08-05T04:16:11.730Z,23.37
2022-08-05T04:17:11.729Z,23.31
2022-08-05T04:18:22.472Z,23.37
2022-08-05T04:19:12.692Z,23.36
2022-08-05T04:20:11.686Z,23.34
2022-08-05T04:21:11.681Z,23.24
2022-08-05T04:22:12.365Z,23.31
2022-08-05T04:23:12.673Z,23.24
2022-08-05T04:24:19.575Z,23.27
2022-08-05T04:25:12.635Z,23.28
2022-08-05T04:26:11.654Z,23.38
2022-08-05T04:27:11.626Z,23.37
2022-08-05T04:28:12.940Z,23.36
2022-08-05T04:29:11.592Z,23.36
2022-08-05T04:30:11.586Z,23.51
2022-08-05T04:31:11.575Z,23.52
2022-08-05T04:32:11.586Z,23.44
2022-08-05T04:33:11.537Z,23.48
2022-08-05T04:34:31.151Z,23.51
2022-08-05T04:35:17.350Z,23.51
2022-08-05T04:36:38.454Z,23.58
2022-08-05T04:37:12.767Z,23.53
2022-08-05T04:38:11.491Z,23.51
2022-08-05T04:39:11.504Z,23.46
2022-08-05T04:40:11.468Z,23.46
2022-08-05T04:41:11.465Z,23.53
2022-08-05T04:42:11.451Z,23.56
2022-08-05T04:43:16.639Z,23.53
2022-08-05T04:44:12.428Z,23.56
2022-08-05T04:45:11.414Z,23.51
2022-08-05T04:46:12.400Z,23.55
2022-08-05T04:47:13.644Z,23.58
2022-08-05T04:48:18.580Z,23.59
2022-08-05T04:49:14.926Z,23.58
2022-08-05T04:50:11.834Z,23.62
2022-08-05T04:51:11.697Z,23.61
2022-08-05T04:52:11.356Z,23.56
2022-08-05T04:53:11.321Z,23.61
2022-08-05T04:54:12.127Z,23.63
2022-08-05T04:55:14.225Z,23.66
2022-08-05T04:56:33.838Z,23.68
2022-08-05T04:57:12.300Z,23.66
2022-08-05T04:58:12.447Z,23.68
2022-08-05T04:59:22.166Z,23.73
2022-08-05T05:00:12.237Z,23.73
2022-08-05T05:01:11.299Z,23.83
2022-08-05T05:02:36.680Z,23.78
2022-08-05T05:03:12.305Z,23.76
2022-08-05T05:04:12.210Z,23.89
2022-08-05T05:05:16.763Z,23.83
2022-08-05T05:06:39.323Z,23.84
2022-08-05T05:07:12.180Z,23.81
2022-08-05T05:08:14.450Z,23.96
2022-08-05T05:09:14.361Z,23.86
2022-08-05T05:10:12.132Z,23.90
2022-08-05T05:11:11.112Z,23.83
2022-08-05T05:12:11.614Z,23.88
2022-08-05T05:13:11.099Z,23.84
2022-08-05T05:14:16.180Z,23.89
2022-08-05T05:15:12.073Z,23.98
2022-08-05T05:16:12.059Z,24.02
2022-08-05T05:17:11.127Z,23.95
2022-08-05T05:18:11.037Z,23.99
2022-08-05T05:19:23.388Z,24.00
2022-08-05T05:20:12.008Z,24.07
2022-08-05T05:21:11.013Z,24.05
2022-08-05T05:22:23.888Z,24.05
2022-08-05T05:23:19.507Z,24.08
2022-08-05T05:24:11.968Z,24.13
2022-08-05T05:25:16.045Z,24.11
2022-08-05T05:26:11.981Z,24.17
2022-08-05T05:27:10.939Z,24.17
2022-08-05T05:28:10.956Z,24.15
2022-08-05T05:29:14.769Z,24.13
2022-08-05T05:30:28.802Z,24.18
2022-08-05T05:31:11.959Z,24.26
2022-08-05T05:32:12.529Z,24.30
2022-08-05T05:33:17.133Z,24.26
2022-08-05T05:34:11.853Z,24.26
2022-08-05T05:35:10.849Z,24.28
2022-08-05T05:36:11.839Z,24.40
2022-08-05T05:37:10.829Z,24.39
2022-08-05T05:38:13.420Z,24.39
2022-08-05T05:39:11.141Z,24.40
2022-08-05T05:40:10.797Z,24.44
2022-08-05T05:41:10.782Z,24.44
2022-08-05T05:42:10.771Z,24.39
2022-08-05T05:43:10.775Z,24.40
2022-08-05T05:44:35.895Z,24.47
2022-08-05T05:45:11.802Z,24.51
2022-08-05T05:46:17.709Z,24.45
2022-08-05T05:47:21.465Z,24.51
2022-08-05T05:48:11.715Z,24.54
2022-08-05T05:49:22.467Z,24.55
2022-08-05T05:50:11.673Z,24.57
2022-08-05T05:51:15.848Z,24.57
2022-08-05T05:52:20.214Z,24.65
2022-08-05T05:53:22.472Z,24.57
2022-08-05T05:54:11.723Z,24.67
2022-08-05T05:55:13.657Z,24.69
2022-08-05T05:56:10.600Z,24.62
2022-08-05T05:57:13.484Z,24.58
2022-08-05T05:58:10.595Z,24.67
2022-08-05T05:59:10.599Z,24.66
2022-08-05T06:00:10.560Z,24.57
2022-08-05T06:01:12.738Z,24.65
2022-08-05T06:02:10.541Z,24.66
2022-08-05T06:03:40.255Z,24.70
2022-08-05T06:04:12.652Z,24.73
2022-08-05T06:05:16.654Z,24.70
2022-08-05T06:06:11.501Z,24.66
2022-08-05T06:07:10.643Z,24.76
2022-08-05T06:08:10.502Z,24.70
2022-08-05T06:09:17.024Z,24.69
2022-08-05T06:10:11.445Z,24.66
2022-08-05T06:11:10.446Z,24.74
2022-08-05T06:12:10.484Z,24.78
2022-08-05T06:13:10.431Z,24.74
2022-08-05T06:14:10.405Z,24.78
2022-08-05T06:15:13.631Z,24.77
2022-08-05T06:16:29.541Z,24.83
2022-08-05T06:17:22.031Z,24.85
2022-08-05T06:18:11.378Z,24.92
2022-08-05T06:19:10.348Z,24.92
2022-08-05T06:20:21.305Z,24.93
2022-08-05T06:21:16.635Z,24.93
2022-08-05T06:22:11.321Z,25.00
2022-08-05T06:23:10.325Z,25.00
2022-08-05T06:24:12.454Z,25.04
2022-08-05T06:25:59.251Z,25.06
2022-08-05T06:26:13.765Z,25.06
2022-08-05T06:27:17.105Z,25.04
2022-08-05T06:28:21.093Z,24.98
2022-08-05T06:29:42.821Z,25.04
2022-08-05T06:30:11.224Z,25.10
2022-08-05T06:31:22.123Z,25.10
2022-08-05T06:32:25.254Z,25.07
2022-08-05T06:33:11.215Z,25.03
2022-08-05T06:34:11.181Z,25.00
2022-08-05T06:35:15.292Z,25.06
2022-08-05T06:36:11.257Z,25.06
2022-08-05T06:37:10.143Z,25.07
2022-08-05T06:38:11.893Z,25.01
2022-08-05T06:39:10.180Z,25.03
2022-08-05T06:40:10.106Z,25.08
2022-08-05T06:41:10.170Z,25.13
2022-08-05T06:42:10.091Z,25.13
2022-08-05T06:43:58.026Z,25.22
2022-08-05T06:44:11.104Z,25.15
2022-08-05T06:45:10.050Z,25.22
2022-08-05T06:46:11.054Z,25.29
2022-08-05T06:47:10.295Z,25.33
2022-08-05T06:48:47.060Z,25.43
2022-08-05T06:49:12.143Z,25.45
2022-08-05T06:50:10.002Z,25.45
2022-08-05T06:51:12.117Z,25.44
2022-08-05T06:52:36.863Z,25.59
2022-08-05T06:53:11.561Z,25.66
2022-08-05T06:54:18.052Z,25.63
2022-08-05T06:55:10.950Z,25.74
2022-08-05T06:56:26.048Z,25.74
2022-08-05T06:57:57.583Z,25.81
2022-08-05T06:58:20.274Z,25.82
2022-08-05T06:59:11.958Z,25.90
2022-08-05T07:00:09.977Z,25.99
2022-08-05T07:01:09.907Z,25.99
2022-08-05T07:02:09.929Z,26.04
2022-08-05T07:03:09.958Z,26.02
2022-08-05T07:04:09.973Z,26.06
2022-08-05T07:05:11.648Z,26.15
2022-08-05T07:06:15.063Z,26.12
2022-08-05T07:07:09.826Z,26.19
2022-08-05T07:08:10.986Z,26.23
2022-08-05T07:09:09.799Z,26.15
2022-08-05T07:10:09.836Z,26.18
2022-08-05T07:11:15.289Z,26.19
2022-08-05T07:12:10.751Z,26.25
2022-08-05T07:13:09.745Z,26.23
2022-08-05T07:14:15.783Z,26.23
2022-08-05T07:15:10.724Z,26.30
2022-08-05T07:16:12.079Z,26.30
2022-08-05T07:17:59.946Z,26.34
2022-08-05T07:18:14.674Z,26.33
2022-08-05T07:19:10.690Z,26.40
2022-08-05T07:20:33.085Z,26.41
2022-08-05T07:21:10.643Z,26.44
2022-08-05T07:22:09.636Z,26.50
2022-08-05T07:23:09.627Z,26.53
2022-08-05T07:24:11.410Z,26.53
2022-08-05T07:25:55.384Z,26.60
2022-08-05T07:26:10.601Z,26.57
2022-08-05T07:27:09.716Z,26.60
2022-08-05T07:28:11.790Z,26.65
2022-08-05T07:29:10.565Z,26.57
2022-08-05T07:30:25.574Z,26.65
2022-08-05T07:31:10.536Z,26.70
2022-08-05T07:32:09.536Z,26.68
2022-08-05T07:33:13.299Z,26.70
2022-08-05T07:34:10.507Z,26.82
2022-08-05T07:35:55.813Z,26.78
2022-08-05T07:36:21.192Z,26.77
2022-08-05T07:37:11.649Z,26.80
2022-08-05T07:38:12.275Z,26.85
2022-08-05T07:39:24.718Z,26.85
2022-08-05T07:40:32.342Z,26.93
2022-08-05T07:42:09.548Z,26.92
2022-08-05T07:42:13.779Z,26.99
2022-08-05T07:43:20.364Z,27.00
2022-08-05T07:44:14.323Z,26.92
2022-08-05T07:45:10.414Z,26.99
2022-08-05T07:46:23.470Z,26.85
2022-08-05T07:47:10.440Z,26.87
2022-08-05T07:48:09.369Z,26.87
2022-08-05T07:49:09.349Z,26.87
2022-08-05T07:50:09.363Z,26.75
2022-08-05T07:51:23.721Z,26.80
2022-08-05T07:52:10.309Z,26.78
2022-08-05T07:53:09.297Z,26.75
2022-08-05T07:54:09.687Z,26.70
2022-08-05T07:55:16.057Z,26.65
2022-08-05T07:57:00.413Z,26.68
2022-08-05T07:57:22.456Z,26.65
2022-08-05T07:58:17.781Z,26.60
2022-08-05T07:59:10.229Z,26.56
2022-08-05T08:00:11.450Z,26.52
2022-08-05T08:01:12.400Z,26.41
2022-08-05T08:02:15.395Z,26.41
2022-08-05T08:03:15.201Z,26.40
2022-08-05T08:04:10.168Z,26.30
2022-08-05T08:05:09.172Z,26.33
2022-08-05T08:06:09.176Z,26.22
2022-08-05T08:07:09.145Z,26.23
2022-08-05T08:08:12.261Z,26.11
2022-08-05T08:09:09.139Z,26.15
2022-08-05T08:10:09.112Z,26.07
2022-08-05T08:11:09.226Z,26.10
2022-08-05T08:12:27.467Z,26.06
2022-08-05T08:13:11.580Z,26.03
2022-08-05T08:14:09.110Z,26.02
2022-08-05T08:15:09.696Z,25.93
2022-08-05T08:16:35.347Z,25.90
2022-08-05T08:17:10.100Z,25.93
2022-08-05T08:18:14.084Z,25.92
2022-08-05T08:19:09.026Z,25.85
2022-08-05T08:20:43.057Z,25.88
2022-08-05T08:21:17.571Z,25.81
2022-08-05T08:22:09.975Z,25.74
2022-08-05T08:23:20.980Z,25.77
2022-08-05T08:24:13.797Z,25.74
2022-08-05T08:25:15.722Z,25.70
2022-08-05T08:26:09.980Z,25.67
2022-08-05T08:27:08.932Z,25.67
2022-08-05T08:28:18.354Z,25.74
2022-08-05T08:30:04.704Z,25.70
2022-08-05T08:30:29.744Z,25.78
2022-08-05T08:31:09.942Z,25.93
2022-08-05T08:32:10.806Z,26.02
2022-08-05T08:33:08.866Z,26.23
2022-08-05T08:34:09.838Z,26.35
2022-08-05T08:35:13.494Z,26.31
2022-08-05T08:36:38.176Z,26.23
2022-08-05T08:37:09.807Z,26.30
2022-08-05T08:38:11.712Z,26.34
2022-08-05T08:39:15.405Z,26.38
2022-08-05T08:40:09.785Z,26.22
2022-08-05T08:41:08.858Z,26.23
2022-08-05T08:42:15.220Z,26.23
2022-08-05T08:44:56.416Z,26.16
2022-08-05T08:45:19.669Z,26.07
2022-08-05T08:45:21.320Z,26.10
2022-08-05T08:46:10.015Z,26.02
2022-08-05T08:47:47.472Z,25.93
2022-08-05T08:48:22.697Z,25.95
2022-08-05T08:50:23.269Z,25.90
2022-08-05T08:50:31.952Z,25.82
2022-08-05T08:52:01.768Z,25.80
2022-08-05T08:52:13.722Z,25.80
2022-08-05T08:53:12.207Z,25.75
2022-08-05T08:54:08.616Z,25.73
2022-08-05T08:55:13.058Z,25.67
2022-08-05T08:56:08.610Z,25.63
2022-08-05T08:57:11.013Z,25.67
2022-08-05T08:58:08.762Z,25.53
2022-08-05T08:59:14.662Z,25.55
2022-08-05T09:00:09.552Z,25.55
2022-08-05T09:01:15.461Z,25.50
2022-08-05T09:02:09.608Z,25.51
2022-08-05T09:03:08.533Z,25.43
2022-08-05T09:04:10.623Z,25.45
2022-08-05T09:05:17.786Z,25.51
2022-08-05T09:06:11.529Z,25.40
2022-08-05T09:07:19.309Z,25.53
2022-08-05T09:08:09.713Z,25.44
2022-08-05T09:09:08.520Z,25.43
2022-08-05T09:10:08.457Z,25.38
2022-08-05T09:11:08.441Z,25.30
2022-08-05T09:12:20.104Z,25.37
2022-08-05T09:13:09.400Z,25.28
2022-08-05T09:14:54.258Z,25.28
2022-08-05T09:15:09.391Z,25.28
2022-08-05T09:16:08.379Z,25.20
2022-08-05T09:17:16.166Z,25.20
2022-08-05T09:18:09.457Z,25.25
2022-08-05T09:19:08.332Z,25.22
2022-08-05T09:20:08.625Z,25.20
2022-08-05T09:21:11.429Z,25.30
2022-08-05T09:22:22.971Z,25.26
2022-08-05T09:23:09.787Z,25.26
2022-08-05T09:24:10.269Z,25.29
2022-08-05T09:25:23.668Z,25.26
2022-08-05T09:26:09.424Z,25.23
2022-08-05T09:27:08.269Z,25.28
2022-08-05T09:28:08.236Z,25.28
2022-08-05T09:29:08.784Z,25.29
2022-08-05T09:30:08.222Z,25.37
2022-08-05T09:31:43.913Z,25.38
2022-08-05T09:32:46.221Z,25.40
2022-08-05T09:33:09.218Z,25.30
2022-08-05T09:34:09.879Z,25.40
2022-08-05T09:35:08.163Z,25.40
2022-08-05T09:36:16.512Z,25.44
2022-08-05T09:37:15.241Z,25.55
2022-08-05T09:38:17.444Z,25.44
2022-08-05T09:39:18.184Z,25.59
2022-08-05T09:40:09.168Z,25.60
2022-08-05T09:41:08.195Z,25.67
2022-08-05T09:42:08.427Z,25.78
2022-08-05T09:43:08.546Z,25.74
2022-08-05T09:44:08.108Z,25.74
2022-08-05T09:46:05.183Z,25.80
2022-08-05T09:46:09.129Z,25.75
2022-08-05T09:47:10.381Z,25.90
2022-08-05T09:48:08.031Z,25.80
2022-08-05T09:49:19.175Z,25.88
2022-08-05T09:50:09.006Z,25.92
2022-08-05T09:51:15.119Z,25.85
2022-08-05T09:52:09.020Z,25.90
2022-08-05T09:53:08.788Z,25.87
2022-08-05T09:54:07.948Z,25.87
2022-08-05T09:55:57.214Z,25.80
2022-08-05T09:56:13.167Z,25.65
2022-08-05T09:57:23.477Z,25.74
2022-08-05T09:58:08.909Z,25.66
2022-08-05T09:59:07.967Z,25.63
2022-08-05T10:00:07.911Z,25.55
2022-08-05T10:01:15.107Z,25.51
2022-08-05T10:02:08.866Z,25.41
2022-08-05T10:03:07.908Z,25.45
2022-08-05T10:04:10.088Z,25.41
2022-08-05T10:05:07.915Z,25.37
2022-08-05T10:06:14.850Z,25.41
2022-08-05T10:07:20.020Z,25.33
2022-08-05T10:08:11.142Z,25.29
2022-08-05T10:09:08.799Z,25.26
2022-08-05T10:10:15.714Z,25.14
2022-08-05T10:11:08.749Z,25.14
2022-08-05T10:12:18.483Z,25.14
2022-08-05T10:13:09.741Z,25.01
2022-08-05T10:14:07.825Z,25.01
2022-08-05T10:15:07.705Z,25.07
2022-08-05T10:16:07.699Z,24.98
2022-08-05T10:17:07.752Z,24.88
2022-08-05T10:18:08.679Z,24.92
2022-08-05T10:19:09.336Z,24.93
2022-08-05T10:20:10.070Z,24.91
2022-08-05T10:21:11.863Z,24.91
2022-08-05T10:22:09.012Z,24.77
2022-08-05T10:23:21.777Z,24.86
2022-08-05T10:24:10.757Z,24.92
2022-08-05T10:25:07.625Z,24.96
2022-08-05T10:26:07.582Z,24.86
2022-08-05T10:27:08.699Z,25.03
2022-08-05T10:28:13.841Z,24.96
2022-08-05T10:29:08.554Z,25.07
2022-08-05T10:31:20.728Z,24.98
2022-08-05T10:32:48.605Z,25.03
2022-08-05T10:32:54.722Z,25.00
2022-08-05T10:33:09.332Z,25.03
2022-08-05T10:34:08.549Z,24.98
2022-08-05T10:35:07.488Z,24.91
2022-08-05T10:36:07.500Z,24.92
2022-08-05T10:37:07.449Z,25.04
2022-08-05T10:38:08.351Z,24.96
2022-08-05T10:39:10.499Z,24.98
2022-08-05T10:40:18.246Z,25.04
2022-08-05T10:41:08.504Z,24.95
2022-08-05T10:42:07.398Z,24.91
2022-08-05T10:43:07.466Z,24.96
2022-08-05T10:44:08.400Z,24.93
2022-08-05T10:45:21.521Z,24.91
2022-08-05T10:46:08.381Z,24.77
2022-08-05T10:47:10.138Z,24.81
2022-08-05T10:48:31.038Z,24.65
2022-08-05T10:49:10.534Z,24.66
2022-08-05T10:50:33.259Z,24.62
2022-08-05T10:51:22.190Z,24.62
2022-08-05T10:52:10.237Z,24.66
2022-08-05T10:53:07.282Z,24.57
2022-08-05T10:54:28.530Z,24.62
2022-08-05T10:55:08.262Z,24.52
2022-08-05T10:56:21.066Z,24.54
2022-08-05T10:57:08.250Z,24.55
2022-08-05T10:58:07.224Z,24.51
2022-08-05T11:00:01.232Z,24.54
2022-08-05T11:00:13.355Z,24.51
2022-08-05T11:01:08.205Z,24.55
2022-08-05T11:02:07.302Z,24.44
2022-08-05T11:03:25.629Z,24.40
2022-08-05T11:04:08.240Z,24.48
2022-08-05T11:05:07.172Z,24.50
2022-08-05T11:06:08.595Z,24.43
2022-08-05T11:07:08.131Z,24.39
2022-08-05T11:08:27.512Z,24.44
2022-08-05T11:09:08.096Z,24.48
2022-08-05T11:10:09.869Z,24.57
2022-08-05T11:11:14.617Z,24.51
2022-08-05T11:12:08.074Z,24.48
2022-08-05T11:13:07.063Z,24.36
2022-08-05T11:14:07.053Z,24.48
2022-08-05T11:15:19.277Z,24.48
2022-08-05T11:16:08.041Z,24.43
2022-08-05T11:17:59.450Z,24.47
2022-08-05T11:18:11.619Z,24.47
2022-08-05T11:20:10.796Z,24.48
2022-08-05T11:20:16.826Z,24.57
2022-08-05T11:21:11.831Z,24.62
2022-08-05T11:22:06.990Z,24.70
2022-08-05T11:23:08.977Z,24.95
2022-08-05T11:24:14.757Z,25.10
2022-08-05T11:26:02.942Z,25.14
2022-08-05T11:26:09.163Z,25.43
2022-08-05T11:27:06.905Z,25.63
2022-08-05T11:28:06.967Z,25.73
2022-08-05T11:29:13.385Z,25.99
2022-08-05T11:30:07.911Z,26.04
2022-08-05T11:31:06.907Z,26.20
2022-08-05T11:32:06.860Z,26.34
2022-08-05T11:33:06.823Z,26.62
2022-08-05T11:34:08.092Z,26.70
2022-08-05T11:35:06.812Z,26.90
2022-08-05T11:36:07.978Z,27.09
2022-08-05T11:38:27.909Z,27.32
2022-08-05T11:38:27.961Z,27.17
2022-08-05T11:39:07.845Z,27.37
2022-08-05T11:40:06.759Z,27.52
2022-08-05T11:41:34.546Z,27.67
2022-08-05T11:42:07.722Z,27.80
2022-08-05T11:43:06.738Z,27.93
2022-08-05T11:44:08.314Z,28.02
2022-08-05T11:45:14.309Z,28.09
2022-08-05T11:46:16.045Z,28.19
2022-08-05T11:47:11.084Z,28.22
2022-08-05T11:48:07.760Z,28.26
2022-08-05T11:49:07.905Z,28.36
2022-08-05T11:50:06.634Z,28.39
2022-08-05T11:51:06.647Z,28.30
2022-08-05T11:52:11.149Z,28.27
2022-08-05T11:53:09.998Z,28.29
2022-08-05T11:54:06.621Z,28.29
2022-08-05T11:55:07.409Z,28.34
2022-08-05T11:56:06.610Z,28.48
2022-08-05T11:57:08.290Z,28.53
2022-08-05T11:58:10.862Z,28.57
2022-08-05T11:59:13.788Z,28.53
2022-08-05T12:00:07.538Z,28.54
2022-08-05T12:01:10.377Z,28.49
2022-08-05T12:02:06.578Z,28.42
2022-08-05T12:03:07.543Z,28.46
2022-08-05T12:04:06.477Z,28.49
2022-08-05T12:05:18.179Z,28.60
2022-08-05T12:06:10.252Z,28.54
2022-08-05T12:07:06.458Z,28.61
2022-08-05T12:08:09.560Z,28.53
2022-08-05T12:09:06.427Z,28.54
2022-08-05T12:10:09.662Z,28.69
2022-08-05T12:11:07.461Z,28.63
2022-08-05T12:12:06.390Z,28.75
2022-08-05T12:13:16.867Z,28.83
2022-08-05T12:14:07.565Z,28.95
2022-08-05T12:15:06.368Z,28.94
2022-08-05T12:16:14.634Z,29.04
2022-08-05T12:17:42.218Z,29.17
2022-08-05T12:18:10.697Z,29.09
2022-08-05T12:19:08.235Z,29.23
2022-08-05T12:20:26.025Z,29.21
2022-08-05T12:21:07.296Z,29.25
2022-08-05T12:22:09.385Z,29.46
2022-08-05T12:23:06.287Z,29.46
2022-08-05T12:24:07.297Z,29.54
2022-08-05T12:25:06.301Z,29.48
2022-08-05T12:26:06.456Z,29.66
2022-08-05T12:27:09.771Z,29.69
2022-08-05T12:28:07.219Z,29.68
2022-08-05T12:29:09.618Z,29.78
2022-08-05T12:30:07.189Z,29.79
2022-08-05T12:31:06.202Z,29.78
2022-08-05T12:32:07.403Z,29.78
2022-08-05T12:33:07.206Z,29.75
2022-08-05T12:34:07.252Z,29.88
2022-08-05T12:35:06.136Z,29.81
2022-08-05T12:36:07.891Z,29.87
2022-08-05T12:37:06.136Z,29.90
2022-08-05T12:38:06.130Z,29.95
2022-08-05T12:39:06.236Z,29.99
2022-08-05T12:40:10.804Z,30.00
2022-08-05T12:41:09.698Z,30.06
2022-08-05T12:42:08.463Z,30.09
2022-08-05T12:43:06.059Z,30.12
2022-08-05T12:44:06.047Z,30.13
2022-08-05T12:45:09.393Z,30.21
2022-08-05T12:46:06.030Z,30.21
2022-08-05T12:47:06.228Z,30.22
2022-08-05T12:48:27.034Z,30.31
2022-08-05T12:49:13.218Z,30.34
2022-08-05T12:50:07.324Z,30.32
2022-08-05T12:51:05.996Z,30.37
2022-08-05T12:52:12.422Z,30.31
2022-08-05T12:53:06.961Z,30.36